Time;durP1;ratioP1;P1;durP2;ratioP2;P2;SDS_P1;SDS_P2;PMS_P1;PMS_P2;Temp;Humidity;BMP_temperature;BMP_pressure;BME280_temperature;BME280_humidity;BME280_pressure;Samples;Min_cycle;Max_cycle;Signal;HPM_P1;HPM_P2
2021/09/13 00:01:04;;;;;;;14.80;11.00;;;;;;;10.61;81.60;97368.23;116172;1184;60352;-73
2021/09/13 00:03:34;;;;;;;16.30;11.50;;;;;;;10.56;82.65;97368.48;116062;1184;72580;-74
2021/09/13 00:06:05;;;;;;;19.10;12.50;;;;;;;10.56;82.41;97368.02;116247;1184;69154;-74
2021/09/13 00:08:34;;;;;;;14.30;10.90;;;;;;;10.55;82.69;97368.68;116165;1184;68779;-74
2021/09/13 00:11:04;;;;;;;15.70;11.60;;;;;;;10.55;83.02;97371.23;116171;1182;60372;-75
2021/09/13 00:13:34;;;;;;;13.60;11.10;;;;;;;10.56;84.40;97370.17;116178;1183;60344;-73
2021/09/13 00:16:06;;;;;;;18.00;13.00;;;;;;;10.55;83.11;97370.50;116277;1180;71900;-74
2021/09/13 00:18:37;;;;;;;;;;;;;;;10.55;81.87;97369.73;116191;1184;70224;-74
2021/09/13 00:21:07;;;;;;;18.40;11.40;;;;;;;10.53;83.71;97367.40;116170;1184;69214;-75
2021/09/13 00:23:39;;;;;;;17.40;11.40;;;;;;;10.51;82.77;97368.18;116132;1184;60787;-74
2021/09/13 00:26:10;;;;;;;16.50;12.30;;;;;;;10.48;82.98;97368.52;116203;1179;60378;-70
2021/09/13 00:28:41;;;;;;;17.90;11.20;;;;;;;10.45;83.54;97370.38;116212;1183;71221;-74
2021/09/13 00:31:13;;;;;;;16.10;12.20;;;;;;;10.41;83.69;97366.29;116155;1183;68385;-74
2021/09/13 00:33:43;;;;;;;16.30;11.80;;;;;;;10.41;84.81;97366.54;116197;1184;68481;-74
2021/09/13 00:36:17;;;;;;;15.50;12.20;;;;;;;10.40;85.31;97361.55;116135;1184;60388;-74
2021/09/13 00:38:48;;;;;;;17.30;12.90;;;;;;;10.40;86.09;97364.63;116108;1181;60425;-73
2021/09/13 00:41:18;;;;;;;20.70;13.50;;;;;;;10.40;86.27;97362.66;116185;1184;71242;-74
2021/09/13 00:43:50;;;;;;;17.60;12.20;;;;;;;10.39;85.33;97366.65;116225;1184;68443;-72
2021/09/13 00:46:20;;;;;;;16.80;12.80;;;;;;;10.37;84.58;97363.64;116154;1184;69183;-74
2021/09/13 00:48:50;;;;;;;17.40;11.40;;;;;;;10.36;85.42;97363.41;116104;1181;60356;-74
2021/09/13 00:51:20;;;;;;;20.40;12.40;;;;;;;10.35;85.41;97363.37;116144;1180;60354;-74
2021/09/13 00:53:50;;;;;;;18.30;12.10;;;;;;;10.34;85.90;97361.83;116086;1182;71959;-73
2021/09/13 00:56:20;;;;;;;;;;;;;;;10.31;85.83;97361.14;116134;1183;68278;-74
2021/09/13 00:58:52;;;;;;;19.30;12.30;;;;;;;10.27;84.94;97366.86;116192;1179;69214;-76
2021/09/13 01:01:22;;;;;;;16.60;10.40;;;;;;;10.22;85.65;97367.54;116258;1183;60712;-75
2021/09/13 01:03:52;;;;;;;17.40;12.20;;;;;;;10.18;85.77;97364.05;116029;1184;60370;-74
2021/09/13 01:06:22;;;;;;;16.30;12.10;;;;;;;10.15;85.61;97368.90;116259;1178;72059;-75
2021/09/13 01:08:53;;;;;;;19.30;12.90;;;;;;;10.12;85.77;97367.11;116180;1180;69059;-73
2021/09/13 01:11:23;;;;;;;15.90;12.50;;;;;;;10.11;85.88;97368.56;116218;1179;68346;-75
2021/09/13 01:13:53;;;;;;;20.70;12.80;;;;;;;10.11;85.69;97370.39;116083;1181;60353;-75
2021/09/13 01:16:24;;;;;;;17.30;13.10;;;;;;;10.11;85.92;97368.17;116079;1181;60795;-74
2021/09/13 01:18:56;;;;;;;18.40;13.40;;;;;;;10.09;84.80;97369.16;116091;1180;70740;-76
2021/09/13 01:21:27;;;;;;;18.30;13.40;;;;;;;10.08;84.77;97373.70;116041;1184;68903;-76
2021/09/13 01:23:57;;;;;;;23.00;14.40;;;;;;;10.08;85.86;97377.41;116190;1184;69222;-74
2021/09/13 01:26:28;;;;;;;18.90;12.90;;;;;;;10.09;85.61;97374.48;116188;1184;60308;-74
2021/09/13 01:28:58;;;;;;;19.50;14.50;;;;;;;10.09;86.26;97375.72;116172;1184;60334;-72
2021/09/13 01:31:33;;;;;;;20.40;13.30;;;;;;;10.09;86.69;97374.00;116053;1184;72076;-73
2021/09/13 01:34:03;;;;;;;17.80;13.50;;;;;;;10.08;87.30;97374.34;116217;1184;69149;-73
2021/09/13 01:36:33;;;;;;;18.50;13.50;;;;;;;10.08;87.17;97372.92;116144;1184;69026;-74
2021/09/13 01:39:08;;;;;;;21.10;14.90;;;;;;;10.07;86.64;97370.81;116206;1180;60298;-74
2021/09/13 01:41:38;;;;;;;24.30;14.40;;;;;;;10.03;84.84;97368.36;116201;1180;60361;-74
2021/09/13 01:44:08;;;;;;;19.30;13.80;;;;;;;9.97;84.74;97365.21;116120;1184;70273;-73
2021/09/13 01:46:39;;;;;;;18.40;13.30;;;;;;;9.91;84.51;97365.94;116201;1184;68657;-74
2021/09/13 01:49:11;;;;;;;15.20;12.00;;;;;;;9.88;84.93;97364.20;116172;1181;68264;-73
2021/09/13 01:51:40;;;;;;;19.50;14.40;;;;;;;9.85;85.88;97363.95;116197;1184;60354;-71
2021/09/13 01:54:10;;;;;;;20.90;14.20;;;;;;;9.84;86.25;97365.48;116204;1182;60384;-74
2021/09/13 01:56:40;;;;;;;17.80;12.50;;;;;;;9.83;85.83;97366.54;116148;1184;71776;-73
2021/09/13 01:59:14;;;;;;;20.40;13.40;;;;;;;9.81;86.89;97365.80;116062;1180;68176;-70
2021/09/13 02:01:43;;;;;;;19.00;11.80;;;;;;;9.80;86.42;97368.21;116118;1182;68315;-73
2021/09/13 02:04:14;;;;;;;21.80;15.70;;;;;;;9.79;86.21;97368.41;116224;1181;60287;-73
2021/09/13 02:06:45;;;;;;;20.70;16.30;;;;;;;9.76;85.18;97366.74;116206;1184;60326;-71
2021/09/13 02:09:16;;;;;;;21.60;16.90;;;;;;;9.75;85.27;97369.09;116206;1180;71370;-73
2021/09/13 02:11:46;;;;;;;23.00;15.20;;;;;;;9.73;85.30;97372.59;116145;1184;68909;-72
2021/09/13 02:14:19;;;;;;;19.10;14.60;;;;;;;9.75;86.86;97369.80;116072;1181;68646;-74
2021/09/13 02:16:49;;;;;;;20.30;13.80;;;;;;;9.75;85.89;97367.98;116152;1183;60298;-72
2021/09/13 02:19:19;;;;;;;;;;;;;;;9.71;85.22;97370.45;116202;1182;60305;-74
2021/09/13 02:21:49;;;;;;;20.00;13.30;;;;;;;9.66;85.33;97369.78;116183;1184;72117;-73
2021/09/13 02:24:20;;;;;;;18.70;13.10;;;;;;;9.61;85.04;97372.14;116160;1183;69187;-73
2021/09/13 02:26:50;;;;;;;17.20;11.40;;;;;;;9.56;84.77;97373.23;116190;1184;69029;-73
2021/09/13 02:29:20;;;;;;;20.00;13.40;;;;;;;9.52;85.07;97372.38;116014;1182;60381;-73
2021/09/13 02:31:51;;;;;;;15.60;12.30;;;;;;;9.50;85.32;97374.64;116199;1179;60354;-74
2021/09/13 02:34:22;;;;;;;17.50;11.50;;;;;;;9.48;86.24;97374.36;116162;1184;72643;-73
2021/09/13 02:36:52;;;;;;;15.70;11.40;;;;;;;9.47;86.54;97374.31;116216;1179;68680;-73
2021/09/13 02:39:23;;;;;;;19.80;11.90;;;;;;;9.47;86.59;97371.06;116089;1183;68579;-73
2021/09/13 02:41:53;;;;;;;18.00;12.80;;;;;;;9.48;86.43;97371.28;116218;1183;60343;-73
2021/09/13 02:44:25;;;;;;;16.90;11.80;;;;;;;9.47;86.66;97366.24;116254;1181;60353;-71
2021/09/13 02:46:56;;;;;;;16.20;11.90;;;;;;;9.48;86.49;97367.73;116233;1178;71259;-74
2021/09/13 02:49:30;;;;;;;19.30;12.40;;;;;;;9.52;87.82;97365.18;116057;1182;69077;-75
2021/09/13 02:52:02;;;;;;;17.70;12.10;;;;;;;9.54;87.52;97362.77;116180;1180;69214;-74
2021/09/13 02:54:32;;;;;;;17.60;11.40;;;;;;;9.51;86.57;97365.35;116092;1181;60411;-74
2021/09/13 02:57:01;;;;;;;18.50;12.00;;;;;;;9.53;87.29;97367.45;116123;1184;60316;-73
2021/09/13 02:59:31;;;;;;;18.50;13.50;;;;;;;9.55;88.15;97369.77;116203;1182;72125;-72
2021/09/13 03:02:00;;;;;;;19.00;14.60;;;;;;;9.56;88.14;97368.26;116242;1179;69147;-72
2021/09/13 03:04:30;;;;;;;19.30;14.60;;;;;;;9.57;87.19;97370.82;116099;1182;68478;-74
2021/09/13 03:07:00;;;;;;;17.60;12.90;;;;;;;9.61;88.22;97372.29;116218;1179;60352;-74
2021/09/13 03:09:29;;;;;;;20.10;14.40;;;;;;;9.63;88.16;97374.04;116119;1184;60302;-74
2021/09/13 03:12:00;;;;;;;19.60;12.60;;;;;;;9.65;87.75;97369.25;116084;1183;72132;-71
2021/09/13 03:14:32;;;;;;;17.00;12.30;;;;;;;9.65;87.58;97373.28;116034;1184;69164;-73
2021/09/13 03:17:05;;;;;;;17.20;13.50;;;;;;;9.63;86.61;97369.46;116064;1182;68337;-74
2021/09/13 03:19:35;;;;;;;18.40;11.70;;;;;;;9.60;86.38;97369.70;116149;1182;60328;-75
2021/09/13 03:22:05;;;;;;;16.10;11.50;;;;;;;9.56;85.69;97371.32;116168;1183;60365;-75
2021/09/13 03:24:35;;;;;;;14.40;10.40;;;;;;;9.48;85.07;97370.24;116215;1183;71323;-75
2021/09/13 03:27:05;;;;;;;15.10;10.60;;;;;;;9.40;84.85;97372.36;116074;1181;69201;-74
2021/09/13 03:29:35;;;;;;;13.90;10.80;;;;;;;9.35;84.74;97370.02;116105;1183;68226;-74
2021/09/13 03:32:05;;;;;;;19.30;10.90;;;;;;;9.31;84.71;97372.72;116179;1179;60367;-74
2021/09/13 03:34:34;;;;;;;16.20;10.30;;;;;;;9.28;84.63;97373.92;116158;1182;60286;-73
2021/09/13 03:37:04;;;;;;;16.60;10.30;;;;;;;9.25;84.40;97376.36;116113;1184;72167;-73
2021/09/13 03:39:37;;;;;;;14.40;10.70;;;;;;;9.21;84.14;97372.77;116070;1182;68427;-70
2021/09/13 03:42:07;;;;;;;15.40;10.00;;;;;;;9.17;84.21;97374.20;116159;1182;69209;-74
2021/09/13 03:44:37;;;;;;;15.90;10.20;;;;;;;9.15;84.75;97376.53;116007;1185;60352;-73
2021/09/13 03:47:25;;;;;;;16.60;11.40;;;;;;;9.14;85.44;97378.20;116088;1185;60355;-72
2021/09/13 03:49:55;;;;;;;18.70;11.60;;;;;;;9.15;85.73;97381.56;115899;1185;71263;-73
2021/09/13 03:52:25;;;;;;;16.70;11.40;;;;;;;9.15;85.51;97385.77;116146;1184;69191;-71
2021/09/13 03:54:54;;;;;;;18.70;10.60;;;;;;;9.11;84.53;97389.79;115893;1185;68493;-70
2021/09/13 03:57:23;;;;;;;16.90;10.30;;;;;;;9.07;84.16;97390.77;116003;1181;60321;-73
2021/09/13 03:59:54;;;;;;;16.30;11.60;;;;;;;9.03;84.02;97387.02;116091;1180;60360;-75
2021/09/13 04:02:24;;;;;;;17.90;11.80;;;;;;;8.96;83.60;97389.38;116088;1181;71313;-74
2021/09/13 04:04:54;;;;;;;16.00;10.80;;;;;;;8.89;84.02;97390.80;116044;1181;69374;-73
2021/09/13 04:07:33;;;;;;;14.10;10.40;;;;;;;8.87;85.01;97392.27;115988;1182;69251;-74
2021/09/13 04:10:33;;;;;;;15.90;10.60;;;;;;;8.89;86.35;97390.96;116106;1182;60369;-74
2021/09/13 04:13:22;;;;;;;16.20;11.70;;;;;;;8.97;86.80;97393.47;116058;1185;60349;-74
2021/09/13 04:16:01;;;;;;;15.30;10.70;;;;;;;9.00;85.50;97396.48;116067;1181;72173;-74
2021/09/13 04:18:57;;;;;;;17.50;11.00;;;;;;;9.02;84.66;97395.33;116032;1185;67649;-71
2021/09/13 04:21:50;;;;;;;13.90;10.70;;;;;;;9.05;85.55;97398.00;116054;1184;68264;-70
2021/09/13 04:24:39;;;;;;;13.60;9.90;;;;;;;9.12;85.79;97398.38;116041;1180;60411;-73
2021/09/13 04:27:43;;;;;;;18.10;10.90;;;;;;;9.27;85.98;97397.79;115992;1185;60413;-74
2021/09/13 04:30:40;;;;;;;16.40;9.80;;;;;;;9.38;85.32;97397.12;116103;1184;72650;-73
2021/09/13 04:33:44;;;;;;;14.00;9.90;;;;;;;9.53;84.64;97398.23;115733;1188;69245;-74
2021/09/13 04:36:33;;;;;;;14.80;9.60;;;;;;;9.74;84.04;97398.23;116006;1184;69056;-71
2021/09/13 04:39:22;;;;;;;21.40;11.10;;;;;;;9.95;83.93;97402.20;115981;1184;60513;-70
2021/09/13 04:42:13;;;;;;;15.90;9.50;;;;;;;10.10;83.37;97402.34;115917;1184;60407;-75
2021/09/13 04:45:15;;;;;;;16.00;10.30;;;;;;;10.17;82.87;97404.03;115906;1182;72799;-70
2021/09/13 04:48:13;;;;;;;20.20;10.90;;;;;;;10.15;81.88;97403.37;115968;1185;69170;-72
2021/09/13 04:50:53;;;;;;;14.40;8.70;;;;;;;10.16;82.00;97408.17;116074;1182;69338;-71
2021/09/13 04:53:45;;;;;;;16.10;10.10;;;;;;;10.27;82.10;97407.34;115907;1185;60375;-73
2021/09/13 04:56:16;;;;;;;20.80;11.80;;;;;;;10.42;82.33;97406.59;116000;1185;60345;-73
2021/09/13 04:58:45;;;;;;;22.20;10.10;;;;;;;10.56;81.91;97406.02;116137;1184;71949;-73
2021/09/13 05:01:14;;;;;;;23.40;11.00;;;;;;;10.73;81.36;97405.28;115999;1181;68431;-73
2021/09/13 05:03:44;;;;;;;24.00;12.20;;;;;;;10.88;80.94;97402.98;116038;1181;69245;-74
2021/09/13 05:06:13;;;;;;;22.10;12.70;;;;;;;11.03;80.36;97403.55;116066;1184;60315;-73
2021/09/13 05:08:43;;;;;;;29.10;14.30;;;;;;;11.22;79.89;97406.83;116070;1181;60304;-71
2021/09/13 05:11:16;;;;;;;31.60;12.30;;;;;;;11.41;78.60;97405.98;116124;1184;72190;-71
2021/09/13 05:13:45;;;;;;;32.50;11.40;;;;;;;11.48;77.64;97405.90;116070;1184;69004;-72
2021/09/13 05:16:15;;;;;;;24.40;10.90;;;;;;;11.52;77.78;97407.73;116009;1185;69114;-74
2021/09/13 05:18:45;;;;;;;33.10;11.50;;;;;;;11.68;77.83;97413.00;116077;1180;60328;-75
2021/09/13 05:21:16;;;;;;;28.00;12.20;;;;;;;11.81;77.56;97413.30;116027;1185;60265;-74
2021/09/13 05:23:48;;;;;;;29.20;13.10;;;;;;;12.02;77.15;97411.85;116049;1182;72043;-74
2021/09/13 05:26:18;;;;;;;24.80;12.40;;;;;;;12.29;77.05;97414.98;115983;1181;68481;-75
2021/09/13 05:28:47;;;;;;;29.20;12.90;;;;;;;12.66;75.98;97412.90;116023;1181;67298;-72
2021/09/13 05:31:16;;;;;;;24.40;12.30;;;;;;;12.99;75.69;97416.96;116066;1184;60280;-74
2021/09/13 05:33:46;;;;;;;25.20;11.80;;;;;;;13.30;74.40;97418.00;116021;1180;60289;-73
2021/09/13 05:36:18;;;;;;;27.20;10.90;;;;;;;13.53;72.55;97416.73;116034;1184;72172;-70
2021/09/13 05:38:47;;;;;;;22.40;10.40;;;;;;;13.79;71.62;97416.32;116104;1184;68666;-73
2021/09/13 05:41:35;;;;;;;24.40;10.00;;;;;;;14.05;70.13;97414.29;116152;1183;68482;-74
2021/09/13 05:44:06;;;;;;;30.50;11.40;;;;;;;14.33;69.73;97412.36;116119;1179;60353;-74
2021/09/13 05:46:36;;;;;;;34.60;11.20;;;;;;;14.62;68.75;97412.68;116214;1184;60330;-73
2021/09/13 05:49:10;;;;;;;24.60;9.90;;;;;;;14.93;68.23;97414.45;116150;1184;71997;-74
2021/09/13 05:51:45;;;;;;;28.60;10.90;;;;;;;15.21;67.82;97416.96;116131;1184;69237;-74
2021/09/13 05:54:22;;;;;;;24.50;11.70;;;;;;;15.59;66.38;97417.93;116127;1184;69266;-75
2021/09/13 05:56:55;;;;;;;25.60;10.90;;;;;;;15.98;65.01;97416.58;116018;1185;60420;-73
2021/09/13 05:59:25;;;;;;;22.70;10.10;;;;;;;16.15;64.34;97418.89;116100;1184;60305;-74
2021/09/13 06:02:04;;;;;;;22.10;10.30;;;;;;;16.38;64.94;97428.45;116036;1181;71005;-71
2021/09/13 06:04:34;;;;;;;21.00;10.50;;;;;;;16.50;63.94;97429.42;115964;1182;69067;-74
2021/09/13 06:07:07;;;;;;;19.60;11.40;;;;;;;17.04;64.17;97429.56;116128;1182;69246;-73
2021/09/13 06:09:36;;;;;;;24.30;10.20;;;;;;;17.49;63.76;97430.17;116037;1184;60305;-72
2021/09/13 06:12:06;;;;;;;27.50;10.60;;;;;;;17.85;63.18;97432.34;116167;1184;60349;-72
2021/09/13 06:14:51;;;;;;;25.60;11.10;;;;;;;18.08;61.79;97433.48;116022;1184;71700;-72
2021/09/13 06:17:23;;;;;;;33.30;10.90;;;;;;;18.18;60.26;97432.39;116135;1184;69182;-72
2021/09/13 06:19:52;;;;;;;28.60;10.60;;;;;;;18.33;59.69;97429.71;116126;1184;68568;-72
2021/09/13 06:22:21;;;;;;;23.50;10.20;;;;;;;18.47;59.70;97431.08;116165;1184;60365;-71
2021/09/13 06:24:52;;;;;;;23.30;10.30;;;;;;;18.35;59.23;97436.67;116028;1182;60366;-71
2021/09/13 06:27:21;;;;;;;44.30;10.70;;;;;;;17.97;59.65;97437.27;116101;1180;71192;-71
2021/09/13 06:29:50;;;;;;;29.70;10.70;;;;;;;18.22;59.96;97437.79;116026;1181;68502;-73
2021/09/13 06:32:21;;;;;;;20.50;9.60;;;;;;;18.13;59.85;97436.39;116124;1182;68509;-73
2021/09/13 06:34:50;;;;;;;19.30;9.30;;;;;;;18.21;59.46;97437.98;116106;1179;60370;-72
2021/09/13 06:37:26;;;;;;;25.80;9.30;;;;;;;18.37;59.45;97436.98;116177;1184;60371;-73
2021/09/13 06:39:58;;;;;;;24.50;9.80;;;;;;;18.66;58.63;97439.85;116129;1184;72067;-72
2021/09/13 06:42:30;;;;;;;21.00;9.00;;;;;;;19.18;58.02;97440.65;116226;1182;69197;-73
2021/09/13 06:45:10;;;;;;;30.50;9.70;;;;;;;19.41;56.31;97440.27;116140;1179;69007;-72
2021/09/13 06:47:46;;;;;;;15.30;8.70;;;;;;;19.63;55.66;97439.91;116065;1183;60284;-73
2021/09/13 06:50:28;;;;;;;24.50;8.40;;;;;;;19.72;54.88;97442.04;116187;1184;60358;-72
2021/09/13 06:52:57;;;;;;;24.90;8.80;;;;;;;19.51;55.40;97440.24;116239;1179;71175;-71
2021/09/13 06:55:27;;;;;;;14.70;8.40;;;;;;;19.63;54.74;97443.85;116166;1181;68990;-72
2021/09/13 06:57:58;;;;;;;13.40;8.80;;;;;;;20.01;54.31;97438.40;116219;1184;69322;-72
2021/09/13 07:00:27;;;;;;;17.90;9.10;;;;;;;20.21;53.19;97441.91;116203;1184;60378;-73
2021/09/13 07:02:56;;;;;;;14.40;8.40;;;;;;;20.40;52.81;97444.65;116191;1182;60320;-71
2021/09/13 07:05:27;;;;;;;13.50;8.90;;;;;;;20.72;52.59;97446.02;116240;1183;72002;-71
2021/09/13 07:07:56;;;;;;;;;;;;;;;21.08;51.17;97445.61;116294;1183;69234;-72
2021/09/13 07:10:25;;;;;;;14.40;9.00;;;;;;;21.09;51.25;97445.77;116217;1184;69049;-72
2021/09/13 07:12:54;;;;;;;17.60;8.90;;;;;;;21.34;50.74;97448.92;116220;1179;60447;-72
2021/09/13 07:15:24;;;;;;;15.20;8.40;;;;;;;21.38;50.13;97451.17;116254;1180;60791;-71
2021/09/13 07:17:53;;;;;;;16.30;9.80;;;;;;;21.48;50.17;97450.40;116247;1184;71986;-73
2021/09/13 07:20:22;;;;;;;12.20;8.60;;;;;;;21.72;49.27;97447.34;116221;1179;68363;-73
2021/09/13 07:22:51;;;;;;;12.00;8.00;;;;;;;22.11;49.20;97451.00;116276;1179;69331;-72
2021/09/13 07:25:20;;;;;;;19.00;8.90;;;;;;;22.45;48.14;97447.02;116195;1184;60348;-72
2021/09/13 07:27:50;;;;;;;16.50;9.20;;;;;;;22.42;47.90;97442.45;116069;1180;60759;-73
2021/09/13 07:30:24;;;;;;;13.60;9.30;;;;;;;22.55;48.21;97442.09;116235;1179;72182;-71
2021/09/13 07:32:53;;;;;;;13.80;8.20;;;;;;;22.79;46.64;97446.53;116224;1180;69220;-71
2021/09/13 07:35:22;;;;;;;13.10;7.50;;;;;;;22.74;47.46;97446.29;116221;1180;69362;-72
2021/09/13 07:37:51;;;;;;;11.70;8.50;;;;;;;22.62;46.90;97449.04;116235;1180;60317;-71
2021/09/13 07:40:21;;;;;;;15.70;8.30;;;;;;;22.73;46.52;97451.34;116265;1179;60342;-71
2021/09/13 07:42:51;;;;;;;14.60;8.90;;;;;;;22.45;47.40;97449.73;116226;1184;72061;-71
2021/09/13 07:45:22;;;;;;;12.20;8.70;;;;;;;22.33;47.18;97451.42;116236;1179;68535;-70
2021/09/13 07:47:54;;;;;;;14.40;8.60;;;;;;;22.48;46.53;97452.43;116235;1182;68988;-72
2021/09/13 07:50:23;;;;;;;13.70;9.50;;;;;;;22.95;46.37;97453.01;116252;1182;60362;-71
2021/09/13 07:52:54;;;;;;;14.30;8.50;;;;;;;23.41;45.31;97454.30;116237;1184;60381;-73
2021/09/13 07:55:30;;;;;;;17.20;9.10;;;;;;;23.60;44.52;97456.77;116279;1184;71239;-71
2021/09/13 07:57:59;;;;;;;17.60;8.90;;;;;;;23.74;43.89;97456.75;116217;1183;68467;-73
2021/09/13 08:00:41;;;;;;;13.90;8.80;;;;;;;23.81;44.07;97453.86;116250;1183;67866;-72
2021/09/13 08:03:10;;;;;;;11.00;8.30;;;;;;;24.44;43.30;97450.94;116231;1182;60273;-72
2021/09/13 08:05:40;;;;;;;13.70;8.20;;;;;;;24.94;41.98;97448.70;116227;1181;60352;-72
2021/09/13 08:08:10;;;;;;;12.90;8.80;;;;;;;25.33;41.58;97452.05;116283;1183;71354;-72
2021/09/13 08:10:40;;;;;;;11.40;8.60;;;;;;;25.69;40.49;97451.14;116287;1184;69231;-76
2021/09/13 08:13:09;;;;;;;;;;;;;;;25.82;39.83;97452.58;116239;1183;68621;-71
2021/09/13 08:15:38;;;;;;;12.10;8.30;;;;;;;26.29;39.32;97454.71;116221;1183;60442;-72
2021/09/13 08:18:08;;;;;;;12.60;7.70;;;;;;;26.43;38.49;97453.81;116275;1182;60355;-71
2021/09/13 08:20:37;;;;;;;14.40;7.70;;;;;;;26.25;39.10;97450.30;116183;1182;72024;-72
2021/09/13 08:23:06;;;;;;;14.10;8.00;;;;;;;26.60;38.57;97448.25;116248;1179;68217;-71
2021/09/13 08:25:35;;;;;;;12.90;8.10;;;;;;;26.94;37.48;97452.66;115980;1181;69683;-72
2021/09/13 08:28:21;;;;;;;14.30;7.50;;;;;;;27.38;36.92;97451.11;116190;1184;60307;-75
2021/09/13 08:30:50;;;;;;;17.30;8.30;;;;;;;27.53;35.85;97447.84;116294;1183;60347;-77
2021/09/13 08:33:20;;;;;;;13.10;7.80;;;;;;;27.79;35.96;97447.05;116194;1183;71955;-73
2021/09/13 08:35:49;;;;;;;15.90;8.30;;;;;;;28.26;34.77;97448.58;116217;1183;69243;-72
2021/09/13 08:38:18;;;;;;;13.00;8.00;;;;;;;27.88;34.62;97445.64;116205;1182;69205;-73
2021/09/13 08:40:47;;;;;;;13.90;7.80;;;;;;;27.27;35.93;97446.84;116256;1180;60366;-73
2021/09/13 08:43:17;;;;;;;13.20;9.10;;;;;;;27.82;35.40;97444.83;116321;1184;60354;-72
2021/09/13 08:45:55;;;;;;;19.00;9.40;;;;;;;28.15;34.46;97447.19;116297;1179;71703;-73
2021/09/13 08:53:47;;;;;;;12.40;8.60;;;;;;;28.70;33.46;97444.24;116242;1181;60306;-71
2021/09/13 08:56:17;;;;;;;15.90;8.40;;;;;;;28.86;33.29;97441.48;116202;1184;60360;-75
2021/09/13 08:58:46;;;;;;;15.60;8.10;;;;;;;29.07;32.56;97439.71;116231;1179;71490;-74
2021/09/13 09:01:16;;;;;;;14.20;8.00;;;;;;;29.49;32.51;97436.64;116057;1183;69044;-71
2021/09/13 09:03:47;;;;;;;15.20;9.60;;;;;;;29.59;32.09;97438.91;116268;1182;68282;-71
2021/09/13 09:06:36;;;;;;;16.60;9.40;;;;;;;29.47;31.48;97435.98;116253;1180;60365;-70
2021/09/13 09:09:07;;;;;;;15.40;8.90;;;;;;;29.26;31.30;97434.83;116112;1182;60405;-75
2021/09/13 09:12:00;;;;;;;14.30;8.30;;;;;;;29.21;31.73;97436.30;116278;1184;72107;-73
2021/09/13 09:14:36;;;;;;;15.60;9.70;;;;;;;29.49;31.53;97434.54;116221;1184;67913;-77
2021/09/13 09:17:08;;;;;;;21.40;9.50;;;;;;;29.01;31.66;97430.72;116269;1180;68786;-77
2021/09/13 09:19:38;;;;;;;17.60;9.30;;;;;;;29.78;31.03;97429.90;116281;1183;60368;-77
2021/09/13 09:22:27;;;;;;;18.20;8.90;;;;;;;30.34;30.27;97425.78;116281;1181;60359;-76
2021/09/13 09:24:58;;;;;;;10.10;7.40;;;;;;;30.09;29.52;97430.61;116282;1183;72033;-77
2021/09/13 09:27:27;;;;;;;12.30;7.40;;;;;;;29.89;30.03;97429.33;116300;1179;69049;-73
2021/09/13 09:30:12;;;;;;;15.70;8.20;;;;;;;30.41;29.55;97424.41;116159;1180;69218;-72
2021/09/13 09:32:41;;;;;;;18.50;9.40;;;;;;;30.31;29.56;97422.91;116144;1179;60365;-74
2021/09/13 09:35:17;;;;;;;19.70;8.10;;;;;;;30.55;29.20;97419.25;116284;1179;60346;-72
2021/09/13 09:37:46;;;;;;;14.50;8.10;;;;;;;30.69;28.88;97421.33;116282;1179;72123;-73
2021/09/13 09:40:29;;;;;;;13.80;7.10;;;;;;;30.88;28.23;97416.33;116243;1181;68419;-73
2021/09/13 09:43:04;;;;;;;15.60;6.60;;;;;;;31.11;27.73;97414.52;116282;1184;67617;-75
2021/09/13 09:45:38;;;;;;;11.80;7.10;;;;;;;30.95;27.93;97414.19;116300;1180;60756;-72
2021/09/13 09:48:10;;;;;;;15.90;6.70;;;;;;;30.95;27.89;97415.25;116318;1180;60316;-73
2021/09/13 09:50:39;;;;;;;15.10;6.90;;;;;;;31.23;27.28;97410.83;116065;1184;72459;-73
2021/09/13 09:53:15;;;;;;;13.40;6.50;;;;;;;31.40;26.98;97411.27;116282;1179;69119;-76
2021/09/13 09:55:50;;;;;;;11.70;5.90;;;;;;;31.41;27.40;97408.70;116218;1180;69257;-76
2021/09/13 09:58:20;;;;;;;15.50;6.80;;;;;;;31.54;27.58;97405.91;116235;1184;60369;-75
2021/09/13 10:00:50;;;;;;;13.20;4.90;;;;;;;32.47;27.56;97405.16;116242;1181;60346;-72
2021/09/13 10:03:33;;;;;;;9.40;5.00;;;;;;;33.08;25.84;97407.25;116306;1184;71846;-79
2021/09/13 10:06:02;;;;;;;9.20;5.20;;;;;;;33.32;25.24;97405.33;116164;1182;68767;-72
2021/09/13 10:08:32;;;;;;;;;;;;;;;33.69;24.56;97405.52;116171;1184;69244;-74
2021/09/13 10:11:06;;;;;;;11.30;5.30;;;;;;;33.34;24.27;97400.42;116266;1183;60378;-73
2021/09/13 10:13:35;;;;;;;7.80;5.50;;;;;;;33.26;25.47;97399.92;116320;1182;60349;-75
2021/09/13 10:16:04;;;;;;;7.30;4.60;;;;;;;33.65;24.35;97399.84;116100;1181;72394;-76
2021/09/13 10:18:33;;;;;;;5.70;4.30;;;;;;;34.28;23.38;97395.07;116226;1184;68394;-73
2021/09/13 10:21:02;;;;;;;7.80;4.30;;;;;;;34.09;22.93;97395.86;116249;1183;69252;-73
2021/09/13 10:23:32;;;;;;;7.70;5.10;;;;;;;34.00;23.33;97397.39;116286;1182;60358;-74
2021/09/13 10:26:05;;;;;;;7.60;5.20;;;;;;;34.12;22.57;97391.52;116261;1183;60729;-75
2021/09/13 10:28:34;;;;;;;9.10;4.90;;;;;;;34.26;22.94;97389.99;116313;1183;72792;-74
2021/09/13 10:31:03;;;;;;;11.70;4.70;;;;;;;34.64;22.55;97387.91;116235;1184;68413;-76
2021/09/13 10:33:59;;;;;;;10.50;5.20;;;;;;;34.77;22.55;97385.86;116227;1180;68267;-75
2021/09/13 10:36:59;;;;;;;8.60;5.70;;;;;;;35.27;21.51;97383.05;116271;1183;60293;-74
2021/09/13 10:39:54;;;;;;;12.60;5.60;;;;;;;35.48;20.67;97380.38;116294;1179;60355;-79
2021/09/13 10:42:44;;;;;;;11.50;6.30;;;;;;;35.87;21.36;97378.16;116273;1183;71378;-78
2021/09/13 10:45:19;;;;;;;10.20;7.10;;;;;;;36.12;20.76;97380.89;116319;1183;68438;-81
2021/09/13 10:47:51;;;;;;;13.30;7.60;;;;;;;36.33;20.74;97379.39;116294;1183;69163;-79
2021/09/13 10:50:45;;;;;;;15.60;8.10;;;;;;;36.47;21.04;97378.84;116296;1181;60405;-75
2021/09/13 10:53:17;;;;;;;16.80;8.30;;;;;;;36.33;20.90;97379.96;116284;1182;60279;-77
2021/09/13 10:56:02;;;;;;;12.40;8.00;;;;;;;36.24;20.33;97373.27;116279;1184;72183;-76
2021/09/13 10:58:42;;;;;;;11.40;8.10;;;;;;;35.70;21.92;97368.89;116255;1184;69001;-78
2021/09/13 11:01:22;;;;;;;12.90;8.10;;;;;;;35.91;21.96;97370.23;116275;1179;68905;-77
2021/09/13 11:04:05;;;;;;;12.70;8.70;;;;;;;36.23;21.85;97374.49;116291;1184;60391;-78
2021/09/13 11:06:40;;;;;;;12.40;8.50;;;;;;;36.27;21.24;97370.02;116260;1182;60295;-78
2021/09/13 11:09:15;;;;;;;10.80;8.00;;;;;;;35.26;21.55;97371.13;116291;1179;72138;-75
2021/09/13 11:11:53;;;;;;;12.80;8.20;;;;;;;35.87;20.88;97366.85;116308;1184;68276;-78
2021/09/13 11:14:24;;;;;;;15.00;10.20;;;;;;;34.40;22.52;97362.35;116272;1180;68508;-74
2021/09/13 11:17:00;;;;;;;17.20;9.50;;;;;;;34.20;22.94;97365.98;116248;1183;60349;-78
2021/09/13 11:19:51;;;;;;;12.40;8.60;;;;;;;34.29;22.75;97363.80;116190;1182;60353;-78
2021/09/13 11:22:21;;;;;;;;;;;;;;;34.34;22.83;97363.80;116285;1182;71643;-77
2021/09/13 11:24:51;;;;;;;16.70;8.80;;;;;;;33.68;23.72;97364.77;116296;1184;69177;-79
2021/09/13 11:27:21;;;;;;;12.70;8.20;;;;;;;33.74;23.63;97364.93;116286;1183;70345;-79
2021/09/13 11:29:51;;;;;;;16.40;8.30;;;;;;;33.74;23.46;97357.16;116287;1180;60342;-77
2021/09/13 11:32:23;;;;;;;12.00;7.30;;;;;;;33.45;24.12;97355.80;116264;1179;60345;-78
2021/09/13 11:34:52;;;;;;;9.80;7.50;;;;;;;33.80;23.72;97351.50;116214;1184;72254;-77
2021/09/13 11:37:27;;;;;;;13.90;8.00;;;;;;;34.22;23.16;97345.61;116122;1184;69269;-76
2021/09/13 11:40:16;;;;;;;13.00;7.60;;;;;;;33.91;23.39;97341.14;116282;1184;68302;-80
2021/09/13 11:42:45;;;;;;;13.90;8.10;;;;;;;33.99;23.51;97338.69;116243;1184;60353;-79
2021/09/13 11:45:16;;;;;;;10.90;6.90;;;;;;;33.67;24.82;97333.52;116268;1183;60351;-78
2021/09/13 11:47:54;;;;;;;13.40;6.60;;;;;;;33.70;25.24;97335.80;116288;1179;71407;-79
2021/09/13 11:50:24;;;;;;;11.40;6.20;;;;;;;34.11;24.58;97330.89;116141;1183;69146;-78